sensor_id;sensor_type;location;lat;lon;timestamp;P1;durP1;ratioP1;P2;durP2;ratioP2
11303;SDS011;5707;49.588;12.148;2022-12-07T00:01:08;2.85;;;2.65;;
11303;SDS011;5707;49.588;12.148;2022-12-07T00:03:35;2.47;;;2.38;;
11303;SDS011;5707;49.588;12.148;2022-12-07T00:06:02;2.15;;;2.05;;
11303;SDS011;5707;49.588;12.148;2022-12-07T00:08:29;2.00;;;1.90;;
11303;SDS011;5707;49.588;12.148;2022-12-07T00:11:00;2.20;;;2.10;;
11303;SDS011;5707;49.588;12.148;2022-12-07T00:13:30;1.92;;;1.77;;
11303;SDS011;5707;49.588;12.148;2022-12-07T00:16:00;3.08;;;2.40;;
11303;SDS011;5707;49.588;12.148;2022-12-07T00:18:30;3.25;;;2.53;;
11303;SDS011;5707;49.588;12.148;2022-12-07T00:21:03;2.05;;;1.95;;
11303;SDS011;5707;49.588;12.148;2022-12-07T00:23:35;2.65;;;2.08;;
11303;SDS011;5707;49.588;12.148;2022-12-07T00:26:11;2.47;;;2.35;;
11303;SDS011;5707;49.588;12.148;2022-12-07T00:28:48;2.38;;;2.17;;
11303;SDS011;5707;49.588;12.148;2022-12-07T00:31:16;2.40;;;2.20;;
11303;SDS011;5707;49.588;12.148;2022-12-07T00:33:43;2.30;;;2.20;;
11303;SDS011;5707;49.588;12.148;2022-12-07T00:36:10;1.90;;;1.80;;
11303;SDS011;5707;49.588;12.148;2022-12-07T00:38:38;2.10;;;2.00;;
11303;SDS011;5707;49.588;12.148;2022-12-07T00:41:05;1.75;;;1.65;;
11303;SDS011;5707;49.588;12.148;2022-12-07T00:43:35;2.10;;;2.00;;
11303;SDS011;5707;49.588;12.148;2022-12-07T00:46:01;1.90;;;1.80;;
11303;SDS011;5707;49.588;12.148;2022-12-07T00:48:27;1.90;;;1.80;;
11303;SDS011;5707;49.588;12.148;2022-12-07T00:50:53;1.85;;;1.75;;
11303;SDS011;5707;49.588;12.148;2022-12-07T00:53:19;1.70;;;1.60;;
11303;SDS011;5707;49.588;12.148;2022-12-07T00:55:45;1.63;;;1.52;;
11303;SDS011;5707;49.588;12.148;2022-12-07T00:58:11;1.73;;;1.63;;
11303;SDS011;5707;49.588;12.148;2022-12-07T01:00:37;1.65;;;1.55;;
11303;SDS011;5707;49.588;12.148;2022-12-07T01:03:05;1.67;;;1.58;;
11303;SDS011;5707;49.588;12.148;2022-12-07T01:05:32;2.20;;;2.08;;
11303;SDS011;5707;49.588;12.148;2022-12-07T01:07:58;1.80;;;1.70;;
11303;SDS011;5707;49.588;12.148;2022-12-07T01:10:23;1.67;;;1.58;;
11303;SDS011;5707;49.588;12.148;2022-12-07T01:12:49;1.70;;;1.60;;
11303;SDS011;5707;49.588;12.148;2022-12-07T01:15:15;1.80;;;1.70;;
11303;SDS011;5707;49.588;12.148;2022-12-07T01:17:41;1.75;;;1.65;;
11303;SDS011;5707;49.588;12.148;2022-12-07T01:20:07;1.77;;;1.67;;
11303;SDS011;5707;49.588;12.148;2022-12-07T01:22:40;1.73;;;1.63;;
11303;SDS011;5707;49.588;12.148;2022-12-07T01:25:06;1.80;;;1.70;;
11303;SDS011;5707;49.588;12.148;2022-12-07T01:27:33;1.65;;;1.55;;
11303;SDS011;5707;49.588;12.148;2022-12-07T01:30:00;1.83;;;1.73;;
11303;SDS011;5707;49.588;12.148;2022-12-07T01:32:26;1.75;;;1.65;;
11303;SDS011;5707;49.588;12.148;2022-12-07T01:34:52;2.25;;;2.15;;
11303;SDS011;5707;49.588;12.148;2022-12-07T01:37:18;2.30;;;2.10;;
11303;SDS011;5707;49.588;12.148;2022-12-07T01:39:44;1.80;;;1.70;;
11303;SDS011;5707;49.588;12.148;2022-12-07T01:42:10;2.40;;;2.20;;
11303;SDS011;5707;49.588;12.148;2022-12-07T01:47:39;2.13;;;2.03;;
11303;SDS011;5707;49.588;12.148;2022-12-07T01:50:06;2.10;;;2.00;;
11303;SDS011;5707;49.588;12.148;2022-12-07T01:52:33;2.10;;;2.00;;
11303;SDS011;5707;49.588;12.148;2022-12-07T01:55:01;2.88;;;2.00;;
11303;SDS011;5707;49.588;12.148;2022-12-07T01:57:30;2.13;;;2.03;;
11303;SDS011;5707;49.588;12.148;2022-12-07T01:59:59;2.20;;;2.10;;
11303;SDS011;5707;49.588;12.148;2022-12-07T02:02:30;1.92;;;1.83;;
11303;SDS011;5707;49.588;12.148;2022-12-07T02:04:58;1.70;;;1.60;;
11303;SDS011;5707;49.588;12.148;2022-12-07T02:07:26;1.90;;;1.80;;
11303;SDS011;5707;49.588;12.148;2022-12-07T02:09:52;2.50;;;2.38;;
11303;SDS011;5707;49.588;12.148;2022-12-07T02:12:18;2.22;;;2.13;;
11303;SDS011;5707;49.588;12.148;2022-12-07T02:14:45;2.40;;;2.30;;
11303;SDS011;5707;49.588;12.148;2022-12-07T02:25:01;3.20;;;2.83;;
11303;SDS011;5707;49.588;12.148;2022-12-07T02:27:46;2.83;;;2.63;;
11303;SDS011;5707;49.588;12.148;2022-12-07T02:30:31;2.72;;;2.63;;
11303;SDS011;5707;49.588;12.148;2022-12-07T02:35:32;2.55;;;2.38;;
11303;SDS011;5707;49.588;12.148;2022-12-07T02:40:50;1.80;;;1.70;;
11303;SDS011;5707;49.588;12.148;2022-12-07T02:43:28;2.08;;;1.55;;
11303;SDS011;5707;49.588;12.148;2022-12-07T02:46:11;1.73;;;1.63;;
11303;SDS011;5707;49.588;12.148;2022-12-07T02:48:51;1.80;;;1.70;;
11303;SDS011;5707;49.588;12.148;2022-12-07T02:51:18;1.65;;;1.55;;
11303;SDS011;5707;49.588;12.148;2022-12-07T02:53:44;1.50;;;1.40;;
11303;SDS011;5707;49.588;12.148;2022-12-07T02:56:23;2.05;;;1.95;;
11303;SDS011;5707;49.588;12.148;2022-12-07T03:05:08;1.77;;;1.67;;
11303;SDS011;5707;49.588;12.148;2022-12-07T03:10:35;1.85;;;1.75;;
11303;SDS011;5707;49.588;12.148;2022-12-07T03:13:25;1.50;;;1.40;;
11303;SDS011;5707;49.588;12.148;2022-12-07T03:16:20;1.42;;;1.38;;
11303;SDS011;5707;49.588;12.148;2022-12-07T03:21:37;1.83;;;1.73;;
11303;SDS011;5707;49.588;12.148;2022-12-07T03:24:10;1.80;;;1.70;;
11303;SDS011;5707;49.588;12.148;2022-12-07T03:26:47;2.05;;;1.95;;
11303;SDS011;5707;49.588;12.148;2022-12-07T03:29:20;2.78;;;2.60;;
11303;SDS011;5707;49.588;12.148;2022-12-07T03:31:58;2.85;;;2.65;;
11303;SDS011;5707;49.588;12.148;2022-12-07T03:34:33;2.83;;;2.63;;
11303;SDS011;5707;49.588;12.148;2022-12-07T03:37:08;2.78;;;2.53;;
11303;SDS011;5707;49.588;12.148;2022-12-07T03:42:29;2.63;;;2.53;;
11303;SDS011;5707;49.588;12.148;2022-12-07T03:44:56;3.30;;;3.10;;
11303;SDS011;5707;49.588;12.148;2022-12-07T03:55:34;3.72;;;3.53;;
11303;SDS011;5707;49.588;12.148;2022-12-07T03:58:05;3.63;;;3.42;;
11303;SDS011;5707;49.588;12.148;2022-12-07T04:00:34;4.00;;;3.80;;
11303;SDS011;5707;49.588;12.148;2022-12-07T04:02:59;4.57;;;4.22;;
11303;SDS011;5707;49.588;12.148;2022-12-07T04:05:25;3.83;;;3.63;;
11303;SDS011;5707;49.588;12.148;2022-12-07T04:07:51;3.72;;;3.53;;
11303;SDS011;5707;49.588;12.148;2022-12-07T04:10:17;3.45;;;3.25;;
11303;SDS011;5707;49.588;12.148;2022-12-07T04:12:43;3.75;;;3.47;;
11303;SDS011;5707;49.588;12.148;2022-12-07T04:15:09;3.85;;;3.55;;
11303;SDS011;5707;49.588;12.148;2022-12-07T04:17:35;3.95;;;3.65;;
11303;SDS011;5707;49.588;12.148;2022-12-07T04:20:01;3.38;;;3.17;;
11303;SDS011;5707;49.588;12.148;2022-12-07T04:22:26;3.60;;;3.10;;
11303;SDS011;5707;49.588;12.148;2022-12-07T04:24:52;4.22;;;3.92;;
11303;SDS011;5707;49.588;12.148;2022-12-07T04:27:18;3.60;;;3.40;;
11303;SDS011;5707;49.588;12.148;2022-12-07T04:29:43;3.60;;;3.30;;
11303;SDS011;5707;49.588;12.148;2022-12-07T04:32:09;3.75;;;3.50;;
11303;SDS011;5707;49.588;12.148;2022-12-07T04:34:34;3.55;;;3.35;;
11303;SDS011;5707;49.588;12.148;2022-12-07T04:37:00;3.90;;;3.70;;
11303;SDS011;5707;49.588;12.148;2022-12-07T04:39:27;3.85;;;3.60;;
11303;SDS011;5707;49.588;12.148;2022-12-07T04:41:54;4.40;;;4.00;;
11303;SDS011;5707;49.588;12.148;2022-12-07T04:44:20;3.88;;;3.67;;
11303;SDS011;5707;49.588;12.148;2022-12-07T04:46:48;4.40;;;3.75;;
11303;SDS011;5707;49.588;12.148;2022-12-07T04:49:14;5.10;;;4.60;;
11303;SDS011;5707;49.588;12.148;2022-12-07T04:51:41;4.45;;;4.15;;
11303;SDS011;5707;49.588;12.148;2022-12-07T04:54:08;4.07;;;3.88;;
11303;SDS011;5707;49.588;12.148;2022-12-07T04:56:34;4.10;;;3.90;;
11303;SDS011;5707;49.588;12.148;2022-12-07T04:59:00;4.45;;;4.15;;
11303;SDS011;5707;49.588;12.148;2022-12-07T05:01:26;4.32;;;4.03;;
11303;SDS011;5707;49.588;12.148;2022-12-07T05:03:52;4.47;;;4.07;;
11303;SDS011;5707;49.588;12.148;2022-12-07T05:06:18;4.50;;;4.20;;
11303;SDS011;5707;49.588;12.148;2022-12-07T05:08:44;6.38;;;5.78;;
11303;SDS011;5707;49.588;12.148;2022-12-07T05:11:10;8.18;;;6.30;;
11303;SDS011;5707;49.588;12.148;2022-12-07T05:13:59;4.78;;;4.35;;
11303;SDS011;5707;49.588;12.148;2022-12-07T05:16:24;6.75;;;6.25;;
11303;SDS011;5707;49.588;12.148;2022-12-07T05:18:50;5.05;;;4.55;;
11303;SDS011;5707;49.588;12.148;2022-12-07T05:21:16;5.10;;;4.70;;
11303;SDS011;5707;49.588;12.148;2022-12-07T05:23:41;4.85;;;4.50;;
11303;SDS011;5707;49.588;12.148;2022-12-07T05:26:07;5.07;;;4.68;;
11303;SDS011;5707;49.588;12.148;2022-12-07T05:28:32;5.50;;;5.00;;
11303;SDS011;5707;49.588;12.148;2022-12-07T05:30:58;5.85;;;5.28;;
11303;SDS011;5707;49.588;12.148;2022-12-07T05:33:24;6.45;;;6.03;;
11303;SDS011;5707;49.588;12.148;2022-12-07T05:35:49;4.85;;;4.55;;
11303;SDS011;5707;49.588;12.148;2022-12-07T05:38:15;5.55;;;5.13;;
11303;SDS011;5707;49.588;12.148;2022-12-07T05:40:41;6.47;;;4.82;;
11303;SDS011;5707;49.588;12.148;2022-12-07T05:43:06;4.68;;;4.28;;
11303;SDS011;5707;49.588;12.148;2022-12-07T05:45:32;6.05;;;5.65;;
11303;SDS011;5707;49.588;12.148;2022-12-07T05:47:58;4.68;;;4.38;;
11303;SDS011;5707;49.588;12.148;2022-12-07T05:50:23;5.68;;;5.18;;
11303;SDS011;5707;49.588;12.148;2022-12-07T05:52:49;6.22;;;5.82;;
11303;SDS011;5707;49.588;12.148;2022-12-07T05:55:15;6.25;;;5.70;;
11303;SDS011;5707;49.588;12.148;2022-12-07T05:57:41;6.93;;;6.32;;
11303;SDS011;5707;49.588;12.148;2022-12-07T06:00:26;7.50;;;7.10;;
11303;SDS011;5707;49.588;12.148;2022-12-07T06:02:52;6.82;;;6.32;;
11303;SDS011;5707;49.588;12.148;2022-12-07T06:05:17;5.95;;;5.50;;
11303;SDS011;5707;49.588;12.148;2022-12-07T06:07:43;5.60;;;5.05;;
11303;SDS011;5707;49.588;12.148;2022-12-07T06:10:09;5.93;;;5.53;;
11303;SDS011;5707;49.588;12.148;2022-12-07T06:12:35;5.70;;;5.20;;
11303;SDS011;5707;49.588;12.148;2022-12-07T06:15:02;5.38;;;5.05;;
11303;SDS011;5707;49.588;12.148;2022-12-07T06:17:28;5.25;;;4.95;;
11303;SDS011;5707;49.588;12.148;2022-12-07T06:19:53;5.95;;;5.55;;
11303;SDS011;5707;49.588;12.148;2022-12-07T06:22:19;5.85;;;5.45;;
11303;SDS011;5707;49.588;12.148;2022-12-07T06:24:45;5.88;;;5.45;;
11303;SDS011;5707;49.588;12.148;2022-12-07T06:27:11;6.05;;;5.65;;
11303;SDS011;5707;49.588;12.148;2022-12-07T06:29:36;6.55;;;6.15;;
11303;SDS011;5707;49.588;12.148;2022-12-07T06:32:02;6.10;;;5.70;;
11303;SDS011;5707;49.588;12.148;2022-12-07T06:34:29;6.00;;;5.50;;
11303;SDS011;5707;49.588;12.148;2022-12-07T06:36:55;5.93;;;5.63;;
11303;SDS011;5707;49.588;12.148;2022-12-07T06:39:21;6.65;;;6.05;;
11303;SDS011;5707;49.588;12.148;2022-12-07T06:41:49;7.53;;;7.03;;
11303;SDS011;5707;49.588;12.148;2022-12-07T06:44:16;9.57;;;8.88;;
11303;SDS011;5707;49.588;12.148;2022-12-07T06:46:42;8.85;;;8.15;;
11303;SDS011;5707;49.588;12.148;2022-12-07T06:49:08;9.70;;;9.00;;
11303;SDS011;5707;49.588;12.148;2022-12-07T06:51:34;7.10;;;6.70;;
11303;SDS011;5707;49.588;12.148;2022-12-07T06:54:05;7.07;;;6.57;;
11303;SDS011;5707;49.588;12.148;2022-12-07T06:56:35;8.18;;;7.47;;
11303;SDS011;5707;49.588;12.148;2022-12-07T06:59:01;7.88;;;7.38;;
11303;SDS011;5707;49.588;12.148;2022-12-07T07:01:28;7.97;;;7.35;;
11303;SDS011;5707;49.588;12.148;2022-12-07T07:03:53;7.15;;;6.60;;
11303;SDS011;5707;49.588;12.148;2022-12-07T07:06:19;7.72;;;6.85;;
11303;SDS011;5707;49.588;12.148;2022-12-07T07:08:45;7.00;;;6.50;;
11303;SDS011;5707;49.588;12.148;2022-12-07T07:11:11;7.15;;;6.65;;
11303;SDS011;5707;49.588;12.148;2022-12-07T07:13:36;7.07;;;6.57;;
11303;SDS011;5707;49.588;12.148;2022-12-07T07:16:02;7.30;;;6.80;;
11303;SDS011;5707;49.588;12.148;2022-12-07T07:18:28;8.05;;;7.47;;
11303;SDS011;5707;49.588;12.148;2022-12-07T07:20:54;8.35;;;7.75;;
11303;SDS011;5707;49.588;12.148;2022-12-07T07:23:20;7.90;;;7.40;;
11303;SDS011;5707;49.588;12.148;2022-12-07T07:25:47;8.48;;;7.88;;
11303;SDS011;5707;49.588;12.148;2022-12-07T07:28:13;8.50;;;7.90;;
11303;SDS011;5707;49.588;12.148;2022-12-07T07:30:39;7.75;;;7.25;;
11303;SDS011;5707;49.588;12.148;2022-12-07T07:33:05;8.38;;;7.78;;
11303;SDS011;5707;49.588;12.148;2022-12-07T07:35:32;8.88;;;8.13;;
11303;SDS011;5707;49.588;12.148;2022-12-07T07:37:59;8.50;;;7.90;;
11303;SDS011;5707;49.588;12.148;2022-12-07T07:40:25;9.38;;;8.40;;
11303;SDS011;5707;49.588;12.148;2022-12-07T07:42:53;10.00;;;9.30;;
11303;SDS011;5707;49.588;12.148;2022-12-07T07:45:20;9.13;;;8.43;;
11303;SDS011;5707;49.588;12.148;2022-12-07T07:47:47;8.52;;;7.93;;
11303;SDS011;5707;49.588;12.148;2022-12-07T07:50:13;8.55;;;8.05;;
11303;SDS011;5707;49.588;12.148;2022-12-07T07:52:38;7.93;;;7.43;;
11303;SDS011;5707;49.588;12.148;2022-12-07T07:55:04;8.07;;;7.47;;
11303;SDS011;5707;49.588;12.148;2022-12-07T07:57:31;7.40;;;6.90;;
11303;SDS011;5707;49.588;12.148;2022-12-07T07:59:56;7.32;;;6.93;;
11303;SDS011;5707;49.588;12.148;2022-12-07T08:02:22;7.95;;;7.45;;
11303;SDS011;5707;49.588;12.148;2022-12-07T08:04:48;7.20;;;6.70;;
11303;SDS011;5707;49.588;12.148;2022-12-07T08:07:14;7.00;;;6.53;;
11303;SDS011;5707;49.588;12.148;2022-12-07T08:09:40;6.97;;;6.47;;
11303;SDS011;5707;49.588;12.148;2022-12-07T08:12:06;7.57;;;6.97;;
11303;SDS011;5707;49.588;12.148;2022-12-07T08:14:32;7.20;;;6.70;;
11303;SDS011;5707;49.588;12.148;2022-12-07T08:16:59;6.80;;;6.30;;
11303;SDS011;5707;49.588;12.148;2022-12-07T08:19:25;7.65;;;6.97;;
11303;SDS011;5707;49.588;12.148;2022-12-07T08:21:51;7.88;;;7.28;;
11303;SDS011;5707;49.588;12.148;2022-12-07T08:24:17;7.45;;;6.95;;
11303;SDS011;5707;49.588;12.148;2022-12-07T08:26:42;7.68;;;6.45;;
11303;SDS011;5707;49.588;12.148;2022-12-07T08:29:08;6.95;;;6.45;;
11303;SDS011;5707;49.588;12.148;2022-12-07T08:31:34;9.32;;;7.10;;
11303;SDS011;5707;49.588;12.148;2022-12-07T08:34:00;7.15;;;6.70;;
11303;SDS011;5707;49.588;12.148;2022-12-07T08:36:25;7.50;;;7.00;;
11303;SDS011;5707;49.588;12.148;2022-12-07T08:38:51;7.05;;;6.55;;
11303;SDS011;5707;49.588;12.148;2022-12-07T08:41:17;6.38;;;5.97;;
11303;SDS011;5707;49.588;12.148;2022-12-07T08:43:43;6.50;;;6.05;;
11303;SDS011;5707;49.588;12.148;2022-12-07T08:46:19;6.75;;;6.25;;
11303;SDS011;5707;49.588;12.148;2022-12-07T08:48:57;6.80;;;6.30;;
11303;SDS011;5707;49.588;12.148;2022-12-07T08:51:28;6.32;;;5.70;;
11303;SDS011;5707;49.588;12.148;2022-12-07T08:53:54;6.25;;;5.75;;
11303;SDS011;5707;49.588;12.148;2022-12-07T08:56:23;5.82;;;5.32;;
11303;SDS011;5707;49.588;12.148;2022-12-07T08:58:50;5.72;;;5.32;;
11303;SDS011;5707;49.588;12.148;2022-12-07T09:01:16;6.90;;;6.40;;
11303;SDS011;5707;49.588;12.148;2022-12-07T09:03:42;6.22;;;5.78;;
11303;SDS011;5707;49.588;12.148;2022-12-07T09:06:07;6.00;;;5.60;;
11303;SDS011;5707;49.588;12.148;2022-12-07T09:08:38;5.85;;;5.35;;
11303;SDS011;5707;49.588;12.148;2022-12-07T09:11:07;4.75;;;4.35;;
11303;SDS011;5707;49.588;12.148;2022-12-07T09:13:33;5.40;;;5.05;;
11303;SDS011;5707;49.588;12.148;2022-12-07T09:15:58;6.30;;;5.40;;
11303;SDS011;5707;49.588;12.148;2022-12-07T09:18:24;6.93;;;6.43;;
11303;SDS011;5707;49.588;12.148;2022-12-07T09:20:50;6.68;;;6.13;;
11303;SDS011;5707;49.588;12.148;2022-12-07T09:23:16;5.97;;;5.57;;
11303;SDS011;5707;49.588;12.148;2022-12-07T09:25:41;6.88;;;6.38;;
11303;SDS011;5707;49.588;12.148;2022-12-07T09:28:07;6.18;;;5.60;;
11303;SDS011;5707;49.588;12.148;2022-12-07T09:30:33;6.10;;;5.70;;
11303;SDS011;5707;49.588;12.148;2022-12-07T09:32:59;6.22;;;5.78;;
11303;SDS011;5707;49.588;12.148;2022-12-07T09:35:26;6.72;;;6.22;;
11303;SDS011;5707;49.588;12.148;2022-12-07T09:37:52;6.20;;;5.80;;
11303;SDS011;5707;49.588;12.148;2022-12-07T09:40:18;6.45;;;6.05;;
11303;SDS011;5707;49.588;12.148;2022-12-07T09:42:51;6.38;;;5.88;;
11303;SDS011;5707;49.588;12.148;2022-12-07T09:45:21;6.93;;;6.43;;
11303;SDS011;5707;49.588;12.148;2022-12-07T09:47:49;7.75;;;7.25;;
11303;SDS011;5707;49.588;12.148;2022-12-07T09:50:16;8.43;;;7.72;;
11303;SDS011;5707;49.588;12.148;2022-12-07T09:52:48;7.00;;;6.50;;
11303;SDS011;5707;49.588;12.148;2022-12-07T09:55:16;8.25;;;7.70;;
11303;SDS011;5707;49.588;12.148;2022-12-07T09:57:48;8.43;;;7.90;;
11303;SDS011;5707;49.588;12.148;2022-12-07T10:00:17;8.00;;;7.50;;
11303;SDS011;5707;49.588;12.148;2022-12-07T10:02:47;7.53;;;7.03;;
11303;SDS011;5707;49.588;12.148;2022-12-07T10:05:18;7.78;;;7.18;;
11303;SDS011;5707;49.588;12.148;2022-12-07T10:07:47;7.15;;;6.55;;
11303;SDS011;5707;49.588;12.148;2022-12-07T10:10:26;8.13;;;7.53;;
11303;SDS011;5707;49.588;12.148;2022-12-07T10:12:59;8.00;;;7.40;;
11303;SDS011;5707;49.588;12.148;2022-12-07T10:18:43;7.43;;;6.85;;
11303;SDS011;5707;49.588;12.148;2022-12-07T10:21:17;7.00;;;6.45;;
11303;SDS011;5707;49.588;12.148;2022-12-07T10:23:59;7.85;;;7.25;;
11303;SDS011;5707;49.588;12.148;2022-12-07T10:26:36;8.25;;;7.55;;
11303;SDS011;5707;49.588;12.148;2022-12-07T10:31:46;8.15;;;7.50;;
11303;SDS011;5707;49.588;12.148;2022-12-07T10:34:28;7.28;;;6.78;;
11303;SDS011;5707;49.588;12.148;2022-12-07T10:37:13;7.55;;;7.05;;
11303;SDS011;5707;49.588;12.148;2022-12-07T10:39:46;6.32;;;5.93;;
11303;SDS011;5707;49.588;12.148;2022-12-07T10:44:46;8.38;;;7.78;;
11303;SDS011;5707;49.588;12.148;2022-12-07T10:47:28;8.05;;;7.45;;
11303;SDS011;5707;49.588;12.148;2022-12-07T11:06:34;6.80;;;6.28;;
11303;SDS011;5707;49.588;12.148;2022-12-07T11:12:09;7.40;;;6.90;;
11303;SDS011;5707;49.588;12.148;2022-12-07T11:17:34;6.78;;;6.38;;
11303;SDS011;5707;49.588;12.148;2022-12-07T11:20:16;6.63;;;6.13;;
11303;SDS011;5707;49.588;12.148;2022-12-07T11:41:38;5.25;;;4.88;;
11303;SDS011;5707;49.588;12.148;2022-12-07T11:48:00;6.28;;;5.80;;
11303;SDS011;5707;49.588;12.148;2022-12-07T11:50:07;5.05;;;4.75;;
11303;SDS011;5707;49.588;12.148;2022-12-07T11:53:10;6.57;;;6.07;;
11303;SDS011;5707;49.588;12.148;2022-12-07T11:55:45;5.00;;;4.70;;
11303;SDS011;5707;49.588;12.148;2022-12-07T11:58:48;5.15;;;4.75;;
11303;SDS011;5707;49.588;12.148;2022-12-07T12:04:05;4.60;;;4.30;;
11303;SDS011;5707;49.588;12.148;2022-12-07T12:06:36;4.90;;;4.60;;
11303;SDS011;5707;49.588;12.148;2022-12-07T12:22:42;5.47;;;5.07;;
11303;SDS011;5707;49.588;12.148;2022-12-07T12:28:05;5.18;;;4.88;;
11303;SDS011;5707;49.588;12.148;2022-12-07T12:30:32;5.20;;;4.90;;
11303;SDS011;5707;49.588;12.148;2022-12-07T12:33:13;5.97;;;5.57;;
11303;SDS011;5707;49.588;12.148;2022-12-07T12:35:40;5.40;;;5.00;;
11303;SDS011;5707;49.588;12.148;2022-12-07T12:38:29;5.68;;;5.28;;
11303;SDS011;5707;49.588;12.148;2022-12-07T12:40:58;6.85;;;6.35;;
11303;SDS011;5707;49.588;12.148;2022-12-07T12:51:49;7.03;;;6.53;;
11303;SDS011;5707;49.588;12.148;2022-12-07T12:54:19;6.28;;;5.88;;
11303;SDS011;5707;49.588;12.148;2022-12-07T13:01:49;6.63;;;6.13;;
11303;SDS011;5707;49.588;12.148;2022-12-07T13:04:21;6.30;;;5.80;;
11303;SDS011;5707;49.588;12.148;2022-12-07T13:06:50;7.03;;;6.53;;
11303;SDS011;5707;49.588;12.148;2022-12-07T13:09:20;6.22;;;5.82;;
11303;SDS011;5707;49.588;12.148;2022-12-07T13:12:01;7.20;;;6.70;;
11303;SDS011;5707;49.588;12.148;2022-12-07T13:14:40;7.78;;;7.18;;
11303;SDS011;5707;49.588;12.148;2022-12-07T13:19:56;8.32;;;7.70;;
11303;SDS011;5707;49.588;12.148;2022-12-07T13:24:59;9.70;;;8.90;;
11303;SDS011;5707;49.588;12.148;2022-12-07T13:27:57;8.48;;;7.78;;
11303;SDS011;5707;49.588;12.148;2022-12-07T13:30:32;8.57;;;7.88;;
11303;SDS011;5707;49.588;12.148;2022-12-07T13:33:08;8.25;;;7.57;;
11303;SDS011;5707;49.588;12.148;2022-12-07T13:35:35;9.63;;;8.73;;
11303;SDS011;5707;49.588;12.148;2022-12-07T13:38:03;13.05;;;11.35;;
11303;SDS011;5707;49.588;12.148;2022-12-07T13:40:31;10.43;;;9.32;;
11303;SDS011;5707;49.588;12.148;2022-12-07T13:43:00;8.60;;;7.70;;
11303;SDS011;5707;49.588;12.148;2022-12-07T13:45:29;9.82;;;9.02;;
11303;SDS011;5707;49.588;12.148;2022-12-07T13:48:20;9.95;;;8.98;;
11303;SDS011;5707;49.588;12.148;2022-12-07T13:50:52;9.90;;;9.05;;
11303;SDS011;5707;49.588;12.148;2022-12-07T13:53:21;8.20;;;7.60;;
11303;SDS011;5707;49.588;12.148;2022-12-07T13:55:47;7.60;;;7.00;;
11303;SDS011;5707;49.588;12.148;2022-12-07T13:58:13;7.90;;;7.30;;
11303;SDS011;5707;49.588;12.148;2022-12-07T14:00:39;7.20;;;6.70;;
11303;SDS011;5707;49.588;12.148;2022-12-07T14:05:40;6.93;;;6.35;;
11303;SDS011;5707;49.588;12.148;2022-12-07T14:10:52;6.97;;;6.47;;
11303;SDS011;5707;49.588;12.148;2022-12-07T14:16:22;7.35;;;6.78;;
11303;SDS011;5707;49.588;12.148;2022-12-07T14:18:52;7.70;;;7.10;;
11303;SDS011;5707;49.588;12.148;2022-12-07T14:21:20;7.38;;;6.88;;
11303;SDS011;5707;49.588;12.148;2022-12-07T14:26:34;7.25;;;6.65;;
11303;SDS011;5707;49.588;12.148;2022-12-07T14:32:04;7.55;;;7.00;;
11303;SDS011;5707;49.588;12.148;2022-12-07T14:34:53;7.25;;;6.65;;
11303;SDS011;5707;49.588;12.148;2022-12-07T14:37:20;7.47;;;6.97;;
11303;SDS011;5707;49.588;12.148;2022-12-07T14:39:46;8.20;;;7.60;;
11303;SDS011;5707;49.588;12.148;2022-12-07T14:42:11;8.70;;;8.07;;
11303;SDS011;5707;49.588;12.148;2022-12-07T14:44:37;8.13;;;7.53;;
11303;SDS011;5707;49.588;12.148;2022-12-07T14:47:03;8.80;;;8.20;;
11303;SDS011;5707;49.588;12.148;2022-12-07T14:49:28;7.88;;;7.28;;
11303;SDS011;5707;49.588;12.148;2022-12-07T14:51:54;7.55;;;7.05;;
11303;SDS011;5707;49.588;12.148;2022-12-07T14:54:20;7.88;;;7.28;;
11303;SDS011;5707;49.588;12.148;2022-12-07T14:56:50;7.88;;;7.13;;
11303;SDS011;5707;49.588;12.148;2022-12-07T14:59:17;7.63;;;6.93;;
11303;SDS011;5707;49.588;12.148;2022-12-07T15:01:43;7.32;;;6.78;;
11303;SDS011;5707;49.588;12.148;2022-12-07T15:04:09;7.28;;;6.68;;
11303;SDS011;5707;49.588;12.148;2022-12-07T15:06:35;6.60;;;6.10;;
11303;SDS011;5707;49.588;12.148;2022-12-07T15:09:00;6.57;;;6.07;;
11303;SDS011;5707;49.588;12.148;2022-12-07T15:11:27;5.72;;;5.32;;
11303;SDS011;5707;49.588;12.148;2022-12-07T15:13:52;6.38;;;5.85;;
11303;SDS011;5707;49.588;12.148;2022-12-07T15:16:33;6.63;;;6.13;;
11303;SDS011;5707;49.588;12.148;2022-12-07T15:19:00;6.60;;;6.10;;
11303;SDS011;5707;49.588;12.148;2022-12-07T15:21:25;5.97;;;5.57;;
11303;SDS011;5707;49.588;12.148;2022-12-07T15:23:51;6.30;;;5.80;;
11303;SDS011;5707;49.588;12.148;2022-12-07T15:26:18;6.18;;;5.78;;
11303;SDS011;5707;49.588;12.148;2022-12-07T15:28:44;7.57;;;6.97;;
11303;SDS011;5707;49.588;12.148;2022-12-07T15:31:13;9.50;;;8.80;;
11303;SDS011;5707;49.588;12.148;2022-12-07T15:33:41;9.95;;;9.15;;
11303;SDS011;5707;49.588;12.148;2022-12-07T15:36:07;9.90;;;9.00;;
11303;SDS011;5707;49.588;12.148;2022-12-07T15:38:33;7.63;;;7.03;;
11303;SDS011;5707;49.588;12.148;2022-12-07T15:40:59;7.90;;;7.32;;
11303;SDS011;5707;49.588;12.148;2022-12-07T15:43:25;8.57;;;7.88;;
11303;SDS011;5707;49.588;12.148;2022-12-07T15:46:09;8.13;;;7.53;;
11303;SDS011;5707;49.588;12.148;2022-12-07T15:48:35;8.05;;;7.45;;
11303;SDS011;5707;49.588;12.148;2022-12-07T15:51:04;8.10;;;7.50;;
11303;SDS011;5707;49.588;12.148;2022-12-07T15:53:32;9.35;;;8.60;;
11303;SDS011;5707;49.588;12.148;2022-12-07T15:55:59;9.38;;;8.38;;
11303;SDS011;5707;49.588;12.148;2022-12-07T15:58:24;7.88;;;7.35;;
11303;SDS011;5707;49.588;12.148;2022-12-07T16:00:50;7.88;;;7.35;;
11303;SDS011;5707;49.588;12.148;2022-12-07T16:03:16;7.28;;;6.70;;
11303;SDS011;5707;49.588;12.148;2022-12-07T16:05:41;7.97;;;7.38;;
11303;SDS011;5707;49.588;12.148;2022-12-07T16:08:13;7.63;;;6.88;;
11303;SDS011;5707;49.588;12.148;2022-12-07T16:10:39;7.63;;;7.00;;
11303;SDS011;5707;49.588;12.148;2022-12-07T16:13:08;8.35;;;7.50;;
11303;SDS011;5707;49.588;12.148;2022-12-07T16:15:40;15.45;;;11.95;;
11303;SDS011;5707;49.588;12.148;2022-12-07T16:18:06;14.98;;;12.52;;
11303;SDS011;5707;49.588;12.148;2022-12-07T16:20:32;7.80;;;6.93;;
11303;SDS011;5707;49.588;12.148;2022-12-07T16:22:58;6.93;;;6.32;;
11303;SDS011;5707;49.588;12.148;2022-12-07T16:25:23;8.45;;;7.75;;
11303;SDS011;5707;49.588;12.148;2022-12-07T16:27:50;8.27;;;7.68;;
11303;SDS011;5707;49.588;12.148;2022-12-07T16:30:16;6.88;;;6.38;;
11303;SDS011;5707;49.588;12.148;2022-12-07T16:32:42;7.18;;;6.68;;
11303;SDS011;5707;49.588;12.148;2022-12-07T16:35:08;7.38;;;6.88;;
11303;SDS011;5707;49.588;12.148;2022-12-07T16:37:34;6.53;;;6.03;;
11303;SDS011;5707;49.588;12.148;2022-12-07T16:40:00;6.68;;;6.18;;
11303;SDS011;5707;49.588;12.148;2022-12-07T16:42:26;7.03;;;6.43;;
11303;SDS011;5707;49.588;12.148;2022-12-07T16:44:56;5.85;;;5.45;;
11303;SDS011;5707;49.588;12.148;2022-12-07T16:47:21;6.55;;;6.05;;
11303;SDS011;5707;49.588;12.148;2022-12-07T16:49:47;6.03;;;5.53;;
11303;SDS011;5707;49.588;12.148;2022-12-07T16:52:13;7.07;;;6.57;;
11303;SDS011;5707;49.588;12.148;2022-12-07T16:54:38;6.07;;;5.68;;
11303;SDS011;5707;49.588;12.148;2022-12-07T16:57:04;6.50;;;6.10;;
11303;SDS011;5707;49.588;12.148;2022-12-07T16:59:30;6.13;;;5.72;;
11303;SDS011;5707;49.588;12.148;2022-12-07T17:01:56;7.47;;;6.93;;
11303;SDS011;5707;49.588;12.148;2022-12-07T17:04:22;7.22;;;6.63;;
11303;SDS011;5707;49.588;12.148;2022-12-07T17:06:47;7.70;;;7.03;;
11303;SDS011;5707;49.588;12.148;2022-12-07T17:09:13;7.18;;;6.53;;
11303;SDS011;5707;49.588;12.148;2022-12-07T17:11:38;7.78;;;7.25;;
11303;SDS011;5707;49.588;12.148;2022-12-07T17:14:08;7.90;;;7.35;;
11303;SDS011;5707;49.588;12.148;2022-12-07T17:16:52;7.25;;;6.72;;
11303;SDS011;5707;49.588;12.148;2022-12-07T17:19:18;6.57;;;6.07;;
11303;SDS011;5707;49.588;12.148;2022-12-07T17:21:43;6.65;;;6.15;;